sensor_id;sensor_type;location;lat;lon;timestamp;pressure;altitude;pressure_sealevel;temperature;humidity
71465;BME280;59274;49.874;9.154;2022-08-19T00:01:53;99924.06;;;19.43;81.98
71465;BME280;59274;49.874;9.154;2022-08-19T00:04:24;99925.38;;;19.39;81.18
71465;BME280;59274;49.874;9.154;2022-08-19T00:06:50;99921.84;;;19.38;81.62
71465;BME280;59274;49.874;9.154;2022-08-19T00:09:17;99916.78;;;19.37;81.74
71465;BME280;59274;49.874;9.154;2022-08-19T00:11:45;99896.38;;;19.34;82.09
71465;BME280;59274;49.874;9.154;2022-08-19T00:14:13;99899.81;;;19.38;82.29
71465;BME280;59274;49.874;9.154;2022-08-19T00:16:41;99899.03;;;19.38;82.42
71465;BME280;59274;49.874;9.154;2022-08-19T00:19:07;99902.09;;;19.40;82.30
71465;BME280;59274;49.874;9.154;2022-08-19T00:21:33;99896.06;;;19.45;82.26
71465;BME280;59274;49.874;9.154;2022-08-19T00:24:09;99893.31;;;19.45;82.52
71465;BME280;59274;49.874;9.154;2022-08-19T00:26:35;99881.53;;;19.44;82.32
71465;BME280;59274;49.874;9.154;2022-08-19T00:29:02;99873.50;;;19.50;80.95
71465;BME280;59274;49.874;9.154;2022-08-19T00:31:28;99867.34;;;19.59;79.99
71465;BME280;59274;49.874;9.154;2022-08-19T00:33:56;99880.88;;;19.66;79.65
71465;BME280;59274;49.874;9.154;2022-08-19T00:36:22;99880.66;;;19.73;79.36
71465;BME280;59274;49.874;9.154;2022-08-19T00:38:47;99880.22;;;19.74;79.17
71465;BME280;59274;49.874;9.154;2022-08-19T00:41:15;99887.56;;;19.77;79.11
71465;BME280;59274;49.874;9.154;2022-08-19T00:43:43;99891.44;;;19.80;78.68
71465;BME280;59274;49.874;9.154;2022-08-19T00:46:09;99895.41;;;19.79;80.17
71465;BME280;59274;49.874;9.154;2022-08-19T00:48:35;99873.81;;;19.77;80.39
71465;BME280;59274;49.874;9.154;2022-08-19T00:51:01;99863.13;;;19.79;80.54
71465;BME280;59274;49.874;9.154;2022-08-19T00:53:28;99855.19;;;19.81;78.58
71465;BME280;59274;49.874;9.154;2022-08-19T00:55:58;99855.94;;;19.82;78.92
71465;BME280;59274;49.874;9.154;2022-08-19T00:58:28;99850.88;;;19.80;77.76
71465;BME280;59274;49.874;9.154;2022-08-19T01:00:55;99851.19;;;19.82;77.51
71465;BME280;59274;49.874;9.154;2022-08-19T01:03:21;99864.84;;;19.86;76.57
71465;BME280;59274;49.874;9.154;2022-08-19T01:05:48;99867.94;;;19.88;76.54
71465;BME280;59274;49.874;9.154;2022-08-19T01:08:19;99871.16;;;19.86;76.89
71465;BME280;59274;49.874;9.154;2022-08-19T01:10:53;99871.16;;;19.86;76.47
71465;BME280;59274;49.874;9.154;2022-08-19T01:13:22;99869.81;;;19.91;76.10
71465;BME280;59274;49.874;9.154;2022-08-19T01:15:53;99871.91;;;19.87;76.77
71465;BME280;59274;49.874;9.154;2022-08-19T01:18:20;99882.16;;;19.86;76.59
71465;BME280;59274;49.874;9.154;2022-08-19T01:20:47;99876.22;;;19.88;76.43
71465;BME280;59274;49.874;9.154;2022-08-19T01:23:13;99869.59;;;19.85;76.70
71465;BME280;59274;49.874;9.154;2022-08-19T01:25:46;99859.34;;;19.86;76.24
71465;BME280;59274;49.874;9.154;2022-08-19T01:28:30;99855.25;;;19.90;75.86
71465;BME280;59274;49.874;9.154;2022-08-19T01:30:55;99854.59;;;19.86;76.57
71465;BME280;59274;49.874;9.154;2022-08-19T01:33:21;99857.03;;;19.84;75.97
71465;BME280;59274;49.874;9.154;2022-08-19T01:35:47;99854.41;;;19.81;76.33
71465;BME280;59274;49.874;9.154;2022-08-19T01:38:25;99865.44;;;19.81;76.36
71465;BME280;59274;49.874;9.154;2022-08-19T01:40:52;99867.72;;;19.82;75.99
71465;BME280;59274;49.874;9.154;2022-08-19T01:43:20;99867.06;;;19.78;76.29
71465;BME280;59274;49.874;9.154;2022-08-19T01:45:46;99872.59;;;19.78;76.33
71465;BME280;59274;49.874;9.154;2022-08-19T01:48:12;99887.56;;;19.77;75.84
71465;BME280;59274;49.874;9.154;2022-08-19T01:50:38;99887.91;;;19.79;76.89
71465;BME280;59274;49.874;9.154;2022-08-19T01:53:06;99899.94;;;19.73;77.57
71465;BME280;59274;49.874;9.154;2022-08-19T01:55:34;99899.06;;;19.63;78.20
71465;BME280;59274;49.874;9.154;2022-08-19T01:58:02;99908.88;;;19.51;79.92
71465;BME280;59274;49.874;9.154;2022-08-19T02:00:31;99904.00;;;19.43;80.36
71465;BME280;59274;49.874;9.154;2022-08-19T02:02:57;99893.75;;;19.31;81.38
71465;BME280;59274;49.874;9.154;2022-08-19T02:05:24;99898.13;;;19.15;82.84
71465;BME280;59274;49.874;9.154;2022-08-19T02:07:50;99901.88;;;19.09;84.22
71465;BME280;59274;49.874;9.154;2022-08-19T02:10:21;99914.88;;;19.08;84.53
71465;BME280;59274;49.874;9.154;2022-08-19T02:12:47;99909.78;;;19.07;85.45
71465;BME280;59274;49.874;9.154;2022-08-19T02:15:14;99921.56;;;19.07;85.09
71465;BME280;59274;49.874;9.154;2022-08-19T02:17:40;99917.28;;;19.06;85.58
71465;BME280;59274;49.874;9.154;2022-08-19T02:20:07;99909.03;;;19.06;85.88
71465;BME280;59274;49.874;9.154;2022-08-19T02:22:34;99914.97;;;19.05;85.45
71465;BME280;59274;49.874;9.154;2022-08-19T02:25:01;99902.84;;;19.02;84.95
71465;BME280;59274;49.874;9.154;2022-08-19T02:27:27;99908.47;;;19.11;83.84
71465;BME280;59274;49.874;9.154;2022-08-19T02:29:52;99914.66;;;19.15;83.70
71465;BME280;59274;49.874;9.154;2022-08-19T02:32:18;99901.88;;;19.22;83.24
71465;BME280;59274;49.874;9.154;2022-08-19T02:34:46;99907.31;;;19.25;82.45
71465;BME280;59274;49.874;9.154;2022-08-19T02:37:11;99899.69;;;19.29;80.74
71465;BME280;59274;49.874;9.154;2022-08-19T02:39:57;99897.16;;;19.35;78.37
71465;BME280;59274;49.874;9.154;2022-08-19T02:42:24;99892.63;;;19.41;78.27
71465;BME280;59274;49.874;9.154;2022-08-19T02:44:49;99892.78;;;19.50;78.27
71465;BME280;59274;49.874;9.154;2022-08-19T02:47:15;99892.69;;;19.53;77.86
71465;BME280;59274;49.874;9.154;2022-08-19T02:49:41;99890.44;;;19.61;75.79
71465;BME280;59274;49.874;9.154;2022-08-19T02:52:06;99897.50;;;19.62;75.53
71465;BME280;59274;49.874;9.154;2022-08-19T02:54:32;99892.34;;;19.64;75.88
71465;BME280;59274;49.874;9.154;2022-08-19T02:56:57;99894.22;;;19.67;74.77
71465;BME280;59274;49.874;9.154;2022-08-19T02:59:24;99896.50;;;19.69;74.90
71465;BME280;59274;49.874;9.154;2022-08-19T03:01:51;99902.03;;;19.69;76.45
71465;BME280;59274;49.874;9.154;2022-08-19T03:04:17;99902.91;;;19.66;77.38
71465;BME280;59274;49.874;9.154;2022-08-19T03:06:44;99906.56;;;19.63;78.01
71465;BME280;59274;49.874;9.154;2022-08-19T03:09:11;99906.25;;;19.61;79.36
71465;BME280;59274;49.874;9.154;2022-08-19T03:11:37;99910.63;;;19.58;80.27
71465;BME280;59274;49.874;9.154;2022-08-19T03:14:04;99904.22;;;19.61;77.97
71465;BME280;59274;49.874;9.154;2022-08-19T03:16:33;99898.28;;;19.63;77.29
71465;BME280;59274;49.874;9.154;2022-08-19T03:18:59;99899.50;;;19.62;77.39
71465;BME280;59274;49.874;9.154;2022-08-19T03:21:31;99893.53;;;19.63;77.43
71465;BME280;59274;49.874;9.154;2022-08-19T03:24:05;99906.69;;;19.59;77.89
71465;BME280;59274;49.874;9.154;2022-08-19T03:26:38;99900.25;;;19.62;77.68
71465;BME280;59274;49.874;9.154;2022-08-19T03:29:04;99903.78;;;19.63;77.79
71465;BME280;59274;49.874;9.154;2022-08-19T03:31:30;99903.78;;;19.63;77.36
71465;BME280;59274;49.874;9.154;2022-08-19T03:33:56;99911.63;;;19.64;76.79
71465;BME280;59274;49.874;9.154;2022-08-19T03:36:24;99914.38;;;19.64;76.69
71465;BME280;59274;49.874;9.154;2022-08-19T03:38:54;99903.69;;;19.66;76.70
71465;BME280;59274;49.874;9.154;2022-08-19T03:41:29;99900.28;;;19.75;75.59
71465;BME280;59274;49.874;9.154;2022-08-19T03:43:55;99901.03;;;19.75;75.34
71465;BME280;59274;49.874;9.154;2022-08-19T03:46:24;99895.19;;;19.73;75.57
71465;BME280;59274;49.874;9.154;2022-08-19T03:48:52;99895.75;;;19.68;76.49
71465;BME280;59274;49.874;9.154;2022-08-19T03:51:23;99903.34;;;19.64;77.04
71465;BME280;59274;49.874;9.154;2022-08-19T03:53:50;99910.84;;;19.64;77.14
71465;BME280;59274;49.874;9.154;2022-08-19T03:56:17;99906.13;;;19.64;77.05
71465;BME280;59274;49.874;9.154;2022-08-19T03:58:43;99912.84;;;19.63;77.27
71465;BME280;59274;49.874;9.154;2022-08-19T04:01:12;99905.69;;;19.66;76.84
71465;BME280;59274;49.874;9.154;2022-08-19T04:03:39;99908.44;;;19.66;76.63
71465;BME280;59274;49.874;9.154;2022-08-19T04:06:12;99911.97;;;19.66;76.75
71465;BME280;59274;49.874;9.154;2022-08-19T04:08:40;99910.75;;;19.67;76.92
71465;BME280;59274;49.874;9.154;2022-08-19T04:11:10;99921.31;;;19.69;77.41
71465;BME280;59274;49.874;9.154;2022-08-19T04:13:41;99917.03;;;19.68;76.69
71465;BME280;59274;49.874;9.154;2022-08-19T04:16:08;99934.22;;;19.72;76.30
71465;BME280;59274;49.874;9.154;2022-08-19T04:18:36;99922.75;;;19.73;75.35
71465;BME280;59274;49.874;9.154;2022-08-19T04:21:02;99916.91;;;19.71;75.93
71465;BME280;59274;49.874;9.154;2022-08-19T04:23:28;99916.03;;;19.74;75.76
71465;BME280;59274;49.874;9.154;2022-08-19T04:25:54;99915.91;;;19.78;75.06
71465;BME280;59274;49.874;9.154;2022-08-19T04:28:20;99919.09;;;19.76;75.36
71465;BME280;59274;49.874;9.154;2022-08-19T04:30:49;99919.88;;;19.77;75.01
71465;BME280;59274;49.874;9.154;2022-08-19T04:33:16;99920.66;;;19.77;74.93
71465;BME280;59274;49.874;9.154;2022-08-19T04:35:46;99916.59;;;19.82;74.99
71465;BME280;59274;49.874;9.154;2022-08-19T04:38:13;99917.78;;;19.81;75.11
71465;BME280;59274;49.874;9.154;2022-08-19T04:40:41;99914.28;;;19.80;75.01
71465;BME280;59274;49.874;9.154;2022-08-19T04:43:26;99920.09;;;19.82;75.00
71465;BME280;59274;49.874;9.154;2022-08-19T04:45:51;99911.94;;;19.79;75.06
71465;BME280;59274;49.874;9.154;2022-08-19T04:48:17;99917.78;;;19.81;74.68
71465;BME280;59274;49.874;9.154;2022-08-19T04:50:47;99929.91;;;19.83;75.01
71465;BME280;59274;49.874;9.154;2022-08-19T04:53:13;99927.16;;;19.83;74.73
71465;BME280;59274;49.874;9.154;2022-08-19T04:55:40;99931.78;;;19.86;74.65
71465;BME280;59274;49.874;9.154;2022-08-19T04:58:06;99931.69;;;19.77;74.37
71465;BME280;59274;49.874;9.154;2022-08-19T05:00:32;99930.03;;;19.80;74.57
71465;BME280;59274;49.874;9.154;2022-08-19T05:02:57;99926.72;;;19.85;73.93
71465;BME280;59274;49.874;9.154;2022-08-19T05:05:23;99925.38;;;19.77;74.43
71465;BME280;59274;49.874;9.154;2022-08-19T05:07:48;99919.88;;;19.77;74.60
71465;BME280;59274;49.874;9.154;2022-08-19T05:10:14;99929.34;;;19.76;74.44
71465;BME280;59274;49.874;9.154;2022-08-19T05:12:40;99939.94;;;19.77;74.58
71465;BME280;59274;49.874;9.154;2022-08-19T05:15:07;99934.78;;;19.79;74.30
71465;BME280;59274;49.874;9.154;2022-08-19T05:17:34;99936.97;;;19.84;74.65
71465;BME280;59274;49.874;9.154;2022-08-19T05:20:00;99941.25;;;19.85;74.28
71465;BME280;59274;49.874;9.154;2022-08-19T05:22:51;99935.19;;;19.90;73.77
71465;BME280;59274;49.874;9.154;2022-08-19T05:25:19;99942.16;;;19.95;74.04
71465;BME280;59274;49.874;9.154;2022-08-19T05:27:45;99944.44;;;19.97;74.25
71465;BME280;59274;49.874;9.154;2022-08-19T05:30:12;99948.22;;;20.03;73.71
71465;BME280;59274;49.874;9.154;2022-08-19T05:32:38;99957.25;;;20.03;73.91
71465;BME280;59274;49.874;9.154;2022-08-19T05:35:05;99959.88;;;20.07;73.80
71465;BME280;59274;49.874;9.154;2022-08-19T05:37:30;99948.75;;;20.10;73.85
71465;BME280;59274;49.874;9.154;2022-08-19T05:39:56;99954.13;;;20.14;73.79
71465;BME280;59274;49.874;9.154;2022-08-19T05:42:22;99961.53;;;20.17;73.25
71465;BME280;59274;49.874;9.154;2022-08-19T05:44:49;99965.16;;;20.14;73.61
71465;BME280;59274;49.874;9.154;2022-08-19T05:47:15;99956.13;;;20.13;73.50
71465;BME280;59274;49.874;9.154;2022-08-19T05:49:42;99961.19;;;20.15;73.72
71465;BME280;59274;49.874;9.154;2022-08-19T05:52:12;99956.56;;;20.12;73.63
71465;BME280;59274;49.874;9.154;2022-08-19T05:54:39;99967.16;;;20.13;74.02
71465;BME280;59274;49.874;9.154;2022-08-19T05:57:09;99970.34;;;20.12;73.79
71465;BME280;59274;49.874;9.154;2022-08-19T05:59:35;99986.25;;;20.08;74.06
71465;BME280;59274;49.874;9.154;2022-08-19T06:02:01;99994.06;;;20.09;73.86
71465;BME280;59274;49.874;9.154;2022-08-19T06:04:27;99991.31;;;20.09;74.08
71465;BME280;59274;49.874;9.154;2022-08-19T06:06:54;99983.81;;;20.10;74.29
71465;BME280;59274;49.874;9.154;2022-08-19T06:09:23;99996.16;;;20.05;74.25
71465;BME280;59274;49.874;9.154;2022-08-19T06:11:50;99996.84;;;20.09;73.96
71465;BME280;59274;49.874;9.154;2022-08-19T06:14:25;100008.63;;;20.10;74.10
71465;BME280;59274;49.874;9.154;2022-08-19T06:16:51;100001.88;;;20.11;74.18
71465;BME280;59274;49.874;9.154;2022-08-19T06:19:18;100006.97;;;20.12;74.23
71465;BME280;59274;49.874;9.154;2022-08-19T06:21:46;100009.19;;;20.17;73.99
71465;BME280;59274;49.874;9.154;2022-08-19T06:24:14;100008.63;;;20.22;73.77
71465;BME280;59274;49.874;9.154;2022-08-19T06:26:43;100012.03;;;20.26;74.00
71465;BME280;59274;49.874;9.154;2022-08-19T06:29:11;100020.72;;;20.25;73.48
71465;BME280;59274;49.874;9.154;2022-08-19T06:31:41;100019.31;;;20.33;73.43
71465;BME280;59274;49.874;9.154;2022-08-19T06:34:07;100014.13;;;20.35;73.58
71465;BME280;59274;49.874;9.154;2022-08-19T06:36:38;100019.09;;;20.40;73.22
71465;BME280;59274;49.874;9.154;2022-08-19T06:39:15;100017.19;;;20.50;73.08
71465;BME280;59274;49.874;9.154;2022-08-19T06:41:44;100024.72;;;20.49;73.73
71465;BME280;59274;49.874;9.154;2022-08-19T06:44:11;100022.38;;;20.48;73.08
71465;BME280;59274;49.874;9.154;2022-08-19T06:46:37;100026.59;;;20.52;73.08
71465;BME280;59274;49.874;9.154;2022-08-19T06:49:03;100036.09;;;20.51;73.40
71465;BME280;59274;49.874;9.154;2022-08-19T06:51:29;100036.16;;;20.60;72.91
71465;BME280;59274;49.874;9.154;2022-08-19T06:53:56;100031.75;;;20.63;73.03
71465;BME280;59274;49.874;9.154;2022-08-19T06:56:28;100040.31;;;20.78;72.20
71465;BME280;59274;49.874;9.154;2022-08-19T06:59:11;100041.28;;;20.84;72.06
71465;BME280;59274;49.874;9.154;2022-08-19T07:01:39;100055.31;;;20.77;72.44
71465;BME280;59274;49.874;9.154;2022-08-19T07:04:06;100058.66;;;20.71;72.19
71465;BME280;59274;49.874;9.154;2022-08-19T07:06:34;100056.34;;;20.70;72.41
71465;BME280;59274;49.874;9.154;2022-08-19T07:09:00;100054.69;;;20.73;72.51
71465;BME280;59274;49.874;9.154;2022-08-19T07:11:26;100048.78;;;20.83;72.14
71465;BME280;59274;49.874;9.154;2022-08-19T07:13:55;100057.31;;;20.89;71.90
71465;BME280;59274;49.874;9.154;2022-08-19T07:16:20;100047.78;;;20.90;72.11
71465;BME280;59274;49.874;9.154;2022-08-19T07:18:48;100048.81;;;21.05;72.33
71465;BME280;59274;49.874;9.154;2022-08-19T07:21:20;100047.94;;;21.08;71.50
71465;BME280;59274;49.874;9.154;2022-08-19T07:23:47;100052.25;;;21.09;71.37
71465;BME280;59274;49.874;9.154;2022-08-19T07:26:19;100050.91;;;21.14;71.54
71465;BME280;59274;49.874;9.154;2022-08-19T07:28:47;100058.75;;;21.15;71.40
71465;BME280;59274;49.874;9.154;2022-08-19T07:31:17;100053.75;;;21.23;71.19
71465;BME280;59274;49.874;9.154;2022-08-19T07:33:47;100054.56;;;21.32;70.90
71465;BME280;59274;49.874;9.154;2022-08-19T07:36:15;100046.19;;;21.36;70.65
71465;BME280;59274;49.874;9.154;2022-08-19T07:38:46;100054.28;;;21.30;71.03
71465;BME280;59274;49.874;9.154;2022-08-19T07:41:19;100056.53;;;21.23;71.08
71465;BME280;59274;49.874;9.154;2022-08-19T07:43:45;100053.88;;;21.19;71.39
71465;BME280;59274;49.874;9.154;2022-08-19T07:46:13;100066.47;;;21.20;70.93
71465;BME280;59274;49.874;9.154;2022-08-19T07:48:41;100057.16;;;21.27;70.51
71465;BME280;59274;49.874;9.154;2022-08-19T07:51:08;100072.63;;;21.46;70.05
71465;BME280;59274;49.874;9.154;2022-08-19T07:53:35;100067.16;;;21.55;69.47
71465;BME280;59274;49.874;9.154;2022-08-19T07:56:02;100074.34;;;21.74;69.10
71465;BME280;59274;49.874;9.154;2022-08-19T07:58:30;100063.06;;;21.91;68.34
71465;BME280;59274;49.874;9.154;2022-08-19T08:00:56;100072.56;;;22.11;67.63
71465;BME280;59274;49.874;9.154;2022-08-19T08:03:23;100066.19;;;22.33;67.08
71465;BME280;59274;49.874;9.154;2022-08-19T08:06:09;100069.59;;;22.46;66.70
71465;BME280;59274;49.874;9.154;2022-08-19T08:08:53;100066.44;;;22.65;65.90
71465;BME280;59274;49.874;9.154;2022-08-19T08:11:43;100064.72;;;22.50;65.53
71465;BME280;59274;49.874;9.154;2022-08-19T08:14:19;100074.44;;;22.63;65.42
71465;BME280;59274;49.874;9.154;2022-08-19T08:16:46;100066.13;;;22.73;64.98
71465;BME280;59274;49.874;9.154;2022-08-19T08:19:13;100068.78;;;22.85;64.86
71465;BME280;59274;49.874;9.154;2022-08-19T08:21:43;100059.84;;;22.72;65.58
71465;BME280;59274;49.874;9.154;2022-08-19T08:24:09;100052.75;;;22.71;64.99
71465;BME280;59274;49.874;9.154;2022-08-19T08:26:34;100047.22;;;22.71;65.64
71465;BME280;59274;49.874;9.154;2022-08-19T08:29:00;100045.22;;;22.72;65.94
71465;BME280;59274;49.874;9.154;2022-08-19T08:31:26;100037.69;;;22.81;65.66
71465;BME280;59274;49.874;9.154;2022-08-19T08:33:52;100052.28;;;22.73;65.36
71465;BME280;59274;49.874;9.154;2022-08-19T08:36:17;100054.28;;;22.72;65.37
71465;BME280;59274;49.874;9.154;2022-08-19T08:38:44;100055.34;;;22.65;65.50
71465;BME280;59274;49.874;9.154;2022-08-19T08:41:36;100066.69;;;22.49;65.58
71465;BME280;59274;49.874;9.154;2022-08-19T08:44:03;100061.47;;;22.60;65.96
71465;BME280;59274;49.874;9.154;2022-08-19T08:46:52;100071.34;;;22.61;65.53
71465;BME280;59274;49.874;9.154;2022-08-19T08:49:38;100067.81;;;22.70;65.12
71465;BME280;59274;49.874;9.154;2022-08-19T08:52:11;100074.66;;;22.87;65.62
71465;BME280;59274;49.874;9.154;2022-08-19T08:54:45;100070.66;;;23.07;64.95
71465;BME280;59274;49.874;9.154;2022-08-19T08:57:19;100078.94;;;23.25;63.39
71465;BME280;59274;49.874;9.154;2022-08-19T08:59:47;100081.09;;;23.02;63.54
71465;BME280;59274;49.874;9.154;2022-08-19T09:02:18;100074.78;;;23.02;64.45
71465;BME280;59274;49.874;9.154;2022-08-19T09:04:44;100077.09;;;23.31;63.43
71465;BME280;59274;49.874;9.154;2022-08-19T09:10:03;100066.94;;;23.64;61.58
71465;BME280;59274;49.874;9.154;2022-08-19T09:12:41;100076.94;;;23.71;61.70
71465;BME280;59274;49.874;9.154;2022-08-19T09:15:13;100075.97;;;23.74;61.23
71465;BME280;59274;49.874;9.154;2022-08-19T09:17:39;100073.97;;;23.74;61.60
71465;BME280;59274;49.874;9.154;2022-08-19T09:20:25;100074.59;;;23.78;60.00
71465;BME280;59274;49.874;9.154;2022-08-19T09:22:51;100075.81;;;23.77;59.85
71465;BME280;59274;49.874;9.154;2022-08-19T09:25:19;100078.53;;;23.96;58.79
71465;BME280;59274;49.874;9.154;2022-08-19T09:27:49;100077.16;;;24.00;58.11
71465;BME280;59274;49.874;9.154;2022-08-19T09:30:18;100087.28;;;24.03;57.29
71465;BME280;59274;49.874;9.154;2022-08-19T09:32:44;100074.81;;;24.08;56.80
71465;BME280;59274;49.874;9.154;2022-08-19T09:35:11;100077.22;;;24.24;56.41
71465;BME280;59274;49.874;9.154;2022-08-19T09:37:38;100076.28;;;24.27;56.58
71465;BME280;59274;49.874;9.154;2022-08-19T09:40:04;100073.16;;;24.34;56.59
71465;BME280;59274;49.874;9.154;2022-08-19T09:42:30;100080.81;;;24.48;56.23
71465;BME280;59274;49.874;9.154;2022-08-19T09:44:55;100069.94;;;24.59;55.81
71465;BME280;59274;49.874;9.154;2022-08-19T09:47:20;100070.66;;;24.69;54.77
71465;BME280;59274;49.874;9.154;2022-08-19T09:49:46;100075.97;;;24.58;53.55
71465;BME280;59274;49.874;9.154;2022-08-19T09:52:14;100069.41;;;24.46;53.75
71465;BME280;59274;49.874;9.154;2022-08-19T09:54:41;100069.78;;;24.63;53.35
71465;BME280;59274;49.874;9.154;2022-08-19T09:57:07;100070.34;;;24.67;53.61
71465;BME280;59274;49.874;9.154;2022-08-19T09:59:33;100068.16;;;24.47;53.76
71465;BME280;59274;49.874;9.154;2022-08-19T10:01:58;100071.25;;;24.49;53.99
71465;BME280;59274;49.874;9.154;2022-08-19T10:04:24;100069.00;;;24.63;53.77
71465;BME280;59274;49.874;9.154;2022-08-19T10:07:09;100065.22;;;24.75;53.70
71465;BME280;59274;49.874;9.154;2022-08-19T10:09:35;100067.81;;;24.54;53.65
71465;BME280;59274;49.874;9.154;2022-08-19T10:12:02;100069.41;;;24.46;53.47
71465;BME280;59274;49.874;9.154;2022-08-19T10:14:29;100065.84;;;24.46;53.85
71465;BME280;59274;49.874;9.154;2022-08-19T10:16:55;100069.47;;;24.61;53.51
71465;BME280;59274;49.874;9.154;2022-08-19T10:19:21;100059.91;;;24.62;52.80
71465;BME280;59274;49.874;9.154;2022-08-19T10:21:47;100061.25;;;24.67;52.04
71465;BME280;59274;49.874;9.154;2022-08-19T10:24:13;100056.72;;;24.78;52.04
71465;BME280;59274;49.874;9.154;2022-08-19T10:26:40;100051.66;;;24.68;50.45
71465;BME280;59274;49.874;9.154;2022-08-19T10:29:11;100052.75;;;24.70;49.75
71465;BME280;59274;49.874;9.154;2022-08-19T10:31:37;100042.81;;;24.54;50.06
71465;BME280;59274;49.874;9.154;2022-08-19T10:34:03;100043.03;;;24.66;48.30
71465;BME280;59274;49.874;9.154;2022-08-19T10:36:33;100038.81;;;24.55;48.85
71465;BME280;59274;49.874;9.154;2022-08-19T10:39:03;100032.53;;;24.70;49.17
71465;BME280;59274;49.874;9.154;2022-08-19T10:41:32;100028.38;;;24.89;49.42
71465;BME280;59274;49.874;9.154;2022-08-19T10:44:03;100031.91;;;24.89;49.16
71465;BME280;59274;49.874;9.154;2022-08-19T10:46:29;100019.34;;;24.79;49.89
71465;BME280;59274;49.874;9.154;2022-08-19T10:49:00;100013.25;;;24.90;49.70
71465;BME280;59274;49.874;9.154;2022-08-19T10:51:27;100002.25;;;24.95;49.91
71465;BME280;59274;49.874;9.154;2022-08-19T10:54:11;100001.88;;;25.17;49.18
71465;BME280;59274;49.874;9.154;2022-08-19T10:56:36;99999.59;;;25.30;49.33
71465;BME280;59274;49.874;9.154;2022-08-19T10:59:25;100001.22;;;25.52;48.25
71465;BME280;59274;49.874;9.154;2022-08-19T11:01:53;100005.63;;;25.73;47.84
71465;BME280;59274;49.874;9.154;2022-08-19T11:04:20;100007.63;;;25.87;45.78
71465;BME280;59274;49.874;9.154;2022-08-19T11:06:48;100008.72;;;26.10;45.12
71465;BME280;59274;49.874;9.154;2022-08-19T11:09:16;100010.09;;;26.15;45.04
71465;BME280;59274;49.874;9.154;2022-08-19T11:11:43;99996.41;;;26.17;44.74
71465;BME280;59274;49.874;9.154;2022-08-19T11:14:13;100000.31;;;26.04;45.23
71465;BME280;59274;49.874;9.154;2022-08-19T11:16:39;99997.53;;;26.39;44.91
71465;BME280;59274;49.874;9.154;2022-08-19T11:19:08;99993.91;;;26.54;43.87
71465;BME280;59274;49.874;9.154;2022-08-19T11:21:36;99998.59;;;26.42;44.89
71465;BME280;59274;49.874;9.154;2022-08-19T11:24:12;99990.56;;;26.49;43.98
71465;BME280;59274;49.874;9.154;2022-08-19T11:26:39;99991.66;;;26.78;43.36
71465;BME280;59274;49.874;9.154;2022-08-19T11:29:06;99989.91;;;27.26;42.87
71465;BME280;59274;49.874;9.154;2022-08-19T11:31:36;99987.75;;;27.67;42.06
71465;BME280;59274;49.874;9.154;2022-08-19T11:34:07;99984.34;;;27.89;40.96
71465;BME280;59274;49.874;9.154;2022-08-19T11:36:37;99981.38;;;27.98;41.70
71465;BME280;59274;49.874;9.154;2022-08-19T11:39:06;99979.66;;;27.70;41.54
71465;BME280;59274;49.874;9.154;2022-08-19T11:41:32;99981.09;;;27.34;43.51
71465;BME280;59274;49.874;9.154;2022-08-19T11:43:58;99971.91;;;27.53;42.63
71465;BME280;59274;49.874;9.154;2022-08-19T11:46:25;99973.41;;;27.86;41.40
71465;BME280;59274;49.874;9.154;2022-08-19T11:48:52;99958.84;;;27.71;40.48
71465;BME280;59274;49.874;9.154;2022-08-19T11:51:20;99962.81;;;27.33;41.53
71465;BME280;59274;49.874;9.154;2022-08-19T11:53:47;99963.00;;;27.23;42.30
71465;BME280;59274;49.874;9.154;2022-08-19T11:56:13;99964.66;;;27.10;42.65
71465;BME280;59274;49.874;9.154;2022-08-19T11:58:38;99952.25;;;27.11;42.82
71465;BME280;59274;49.874;9.154;2022-08-19T12:01:06;99955.41;;;26.98;43.99
71465;BME280;59274;49.874;9.154;2022-08-19T12:03:33;99961.59;;;26.87;44.08
71465;BME280;59274;49.874;9.154;2022-08-19T12:06:04;99951.66;;;26.81;43.44
71465;BME280;59274;49.874;9.154;2022-08-19T12:08:30;99943.94;;;26.91;42.74
71465;BME280;59274;49.874;9.154;2022-08-19T12:10:56;99946.25;;;26.92;42.17
71465;BME280;59274;49.874;9.154;2022-08-19T12:13:21;99942.03;;;26.82;42.70
71465;BME280;59274;49.874;9.154;2022-08-19T12:15:47;99959.28;;;26.86;41.74
71465;BME280;59274;49.874;9.154;2022-08-19T12:18:13;99944.94;;;27.50;40.96
71465;BME280;59274;49.874;9.154;2022-08-19T12:20:42;99941.91;;;28.22;39.66
71465;BME280;59274;49.874;9.154;2022-08-19T12:23:10;99943.94;;;29.14;38.27
71465;BME280;59274;49.874;9.154;2022-08-19T12:25:36;99936.06;;;29.63;38.31
71465;BME280;59274;49.874;9.154;2022-08-19T12:28:03;99929.44;;;29.72;37.78
71465;BME280;59274;49.874;9.154;2022-08-19T12:30:29;99932.63;;;30.26;36.91
71465;BME280;59274;49.874;9.154;2022-08-19T12:32:54;99929.19;;;30.55;35.69
71465;BME280;59274;49.874;9.154;2022-08-19T12:35:20;99923.22;;;30.76;35.92
71465;BME280;59274;49.874;9.154;2022-08-19T12:37:47;99918.84;;;30.33;35.74
71465;BME280;59274;49.874;9.154;2022-08-19T12:40:15;99922.84;;;30.55;36.15
71465;BME280;59274;49.874;9.154;2022-08-19T12:42:41;99938.63;;;29.67;37.42
71465;BME280;59274;49.874;9.154;2022-08-19T12:45:12;99930.69;;;28.93;39.06
71465;BME280;59274;49.874;9.154;2022-08-19T12:47:39;99928.44;;;29.02;38.58
71465;BME280;59274;49.874;9.154;2022-08-19T12:50:05;99934.66;;;28.58;37.07
71465;BME280;59274;49.874;9.154;2022-08-19T12:52:36;99931.50;;;29.27;36.18
71465;BME280;59274;49.874;9.154;2022-08-19T12:55:07;99936.81;;;28.91;37.17
71465;BME280;59274;49.874;9.154;2022-08-19T12:57:33;99934.84;;;28.38;38.00
71465;BME280;59274;49.874;9.154;2022-08-19T13:00:23;99946.63;;;28.05;39.21
71465;BME280;59274;49.874;9.154;2022-08-19T13:02:50;99952.84;;;27.83;39.82
71465;BME280;59274;49.874;9.154;2022-08-19T13:05:21;99946.34;;;27.60;39.55
71465;BME280;59274;49.874;9.154;2022-08-19T13:07:52;99953.47;;;27.36;39.91